SLRI/RIB METAR and TAF weather

Enter ICAO airport designator
Station Type Date Time Source
SLRI METAR 2021/08/04 23:00 UTC NOAA

SLRI 042300Z 00000KT 9999 NSC 28/17 Q1016


Station Type Date Time Source
SLRI Decoded METAR 2021/08/04 23:00 UTC NOAA

Riberalta, Bolivia (SLRI) 11-00S 066-07W
Aug 04, 2021 - 07:00 PM EDT / 2021.08.04 2300 UTC
Wind: Calm:0
Visibility: greater than 7 mile(s):0
Temperature: 82 F (28 C)
Dew Point: 62 F (17 C)
Relative Humidity: 51%
Pressure (altimeter): 30.00 in. Hg (1016 hPa)
ob: SLRI 042300Z 00000KT 9999 NSC 28/17 Q1016
cycle: 23

Station Type Date Time Source
SLRI TAF 2015/11/18 00:29 UTC NOAA

TAF SLRI 182200Z 1900/1924 00000KT 9999 FEW015 TX37/1919Z TN23/1910Z
BECMG 1912/1914 33011KT SCT020
TEMPO 1919/1922 8000 VCSH FEW020 FEW023CB BKN080

Example: see airport list